sensor_id;sensor_type;location;lat;lon;timestamp;P1;durP1;ratioP1;P2;durP2;ratioP2
21741;SDS011;11033;47.490;11.116;2023-06-26T00:00:28;17.40;;;15.50;;
21741;SDS011;11033;47.490;11.116;2023-06-26T00:02:53;16.30;;;14.57;;
21741;SDS011;11033;47.490;11.116;2023-06-26T00:05:19;16.35;;;14.52;;
21741;SDS011;11033;47.490;11.116;2023-06-26T00:07:44;16.83;;;15.13;;
21741;SDS011;11033;47.490;11.116;2023-06-26T00:10:09;16.80;;;15.10;;
21741;SDS011;11033;47.490;11.116;2023-06-26T00:12:35;16.00;;;14.50;;
21741;SDS011;11033;47.490;11.116;2023-06-26T00:15:00;18.10;;;15.87;;
21741;SDS011;11033;47.490;11.116;2023-06-26T00:17:25;15.63;;;13.98;;
21741;SDS011;11033;47.490;11.116;2023-06-26T00:19:51;15.18;;;13.68;;
21741;SDS011;11033;47.490;11.116;2023-06-26T00:22:16;16.37;;;14.67;;
21741;SDS011;11033;47.490;11.116;2023-06-26T00:24:41;15.73;;;14.20;;
21741;SDS011;11033;47.490;11.116;2023-06-26T00:27:06;17.03;;;14.83;;
21741;SDS011;11033;47.490;11.116;2023-06-26T00:29:32;15.73;;;14.13;;
21741;SDS011;11033;47.490;11.116;2023-06-26T00:31:57;17.70;;;15.77;;
21741;SDS011;11033;47.490;11.116;2023-06-26T00:34:22;16.27;;;14.55;;
21741;SDS011;11033;47.490;11.116;2023-06-26T00:36:47;16.83;;;15.03;;
21741;SDS011;11033;47.490;11.116;2023-06-26T00:39:12;15.97;;;14.40;;
21741;SDS011;11033;47.490;11.116;2023-06-26T00:41:38;15.27;;;13.68;;
21741;SDS011;11033;47.490;11.116;2023-06-26T00:44:04;18.17;;;16.27;;
21741;SDS011;11033;47.490;11.116;2023-06-26T00:46:29;17.30;;;15.63;;
21741;SDS011;11033;47.490;11.116;2023-06-26T00:48:54;17.17;;;15.47;;
21741;SDS011;11033;47.490;11.116;2023-06-26T00:51:20;16.02;;;14.43;;
21741;SDS011;11033;47.490;11.116;2023-06-26T00:53:45;17.33;;;15.63;;
21741;SDS011;11033;47.490;11.116;2023-06-26T00:56:10;17.63;;;15.27;;
21741;SDS011;11033;47.490;11.116;2023-06-26T00:58:36;16.30;;;14.80;;
21741;SDS011;11033;47.490;11.116;2023-06-26T01:01:01;17.98;;;16.17;;
21741;SDS011;11033;47.490;11.116;2023-06-26T01:03:27;16.13;;;14.55;;
21741;SDS011;11033;47.490;11.116;2023-06-26T01:05:53;16.55;;;14.80;;
21741;SDS011;11033;47.490;11.116;2023-06-26T01:08:19;16.58;;;14.98;;
21741;SDS011;11033;47.490;11.116;2023-06-26T01:10:45;16.83;;;15.13;;
21741;SDS011;11033;47.490;11.116;2023-06-26T01:13:11;16.55;;;14.95;;
21741;SDS011;11033;47.490;11.116;2023-06-26T01:15:36;19.00;;;15.13;;
21741;SDS011;11033;47.490;11.116;2023-06-26T01:18:01;17.00;;;14.80;;
21741;SDS011;11033;47.490;11.116;2023-06-26T01:20:30;16.92;;;14.57;;
21741;SDS011;11033;47.490;11.116;2023-06-26T01:25:35;17.23;;;15.55;;
21741;SDS011;11033;47.490;11.116;2023-06-26T01:28:04;16.35;;;14.65;;
21741;SDS011;11033;47.490;11.116;2023-06-26T01:30:30;16.67;;;15.02;;
21741;SDS011;11033;47.490;11.116;2023-06-26T01:32:55;17.13;;;15.40;;
21741;SDS011;11033;47.490;11.116;2023-06-26T01:35:21;17.30;;;15.47;;
21741;SDS011;11033;47.490;11.116;2023-06-26T01:37:47;16.65;;;14.98;;
21741;SDS011;11033;47.490;11.116;2023-06-26T01:40:12;16.47;;;14.87;;
21741;SDS011;11033;47.490;11.116;2023-06-26T01:42:38;16.58;;;14.88;;
21741;SDS011;11033;47.490;11.116;2023-06-26T01:45:07;16.80;;;15.20;;
21741;SDS011;11033;47.490;11.116;2023-06-26T01:47:32;16.65;;;14.95;;
21741;SDS011;11033;47.490;11.116;2023-06-26T01:50:05;17.17;;;15.43;;
21741;SDS011;11033;47.490;11.116;2023-06-26T01:54:58;15.82;;;14.25;;
21741;SDS011;11033;47.490;11.116;2023-06-26T01:57:26;17.40;;;15.70;;
21741;SDS011;11033;47.490;11.116;2023-06-26T01:59:53;17.48;;;15.65;;
21741;SDS011;11033;47.490;11.116;2023-06-26T02:02:19;16.83;;;15.02;;
21741;SDS011;11033;47.490;11.116;2023-06-26T02:04:44;17.00;;;15.20;;
21741;SDS011;11033;47.490;11.116;2023-06-26T02:07:13;16.63;;;14.88;;
21741;SDS011;11033;47.490;11.116;2023-06-26T02:09:38;15.17;;;13.77;;
21741;SDS011;11033;47.490;11.116;2023-06-26T02:12:03;16.03;;;14.43;;
21741;SDS011;11033;47.490;11.116;2023-06-26T02:14:28;16.10;;;14.50;;
21741;SDS011;11033;47.490;11.116;2023-06-26T02:16:54;16.07;;;14.17;;
21741;SDS011;11033;47.490;11.116;2023-06-26T02:19:19;14.27;;;12.97;;
21741;SDS011;11033;47.490;11.116;2023-06-26T02:21:49;16.80;;;14.82;;
21741;SDS011;11033;47.490;11.116;2023-06-26T02:24:14;15.32;;;13.82;;
21741;SDS011;11033;47.490;11.116;2023-06-26T02:26:39;17.33;;;14.93;;
21741;SDS011;11033;47.490;11.116;2023-06-26T02:29:04;18.87;;;14.97;;
21741;SDS011;11033;47.490;11.116;2023-06-26T02:31:30;16.80;;;15.13;;
21741;SDS011;11033;47.490;11.116;2023-06-26T02:33:55;15.53;;;13.93;;
21741;SDS011;11033;47.490;11.116;2023-06-26T02:36:20;15.63;;;14.13;;
21741;SDS011;11033;47.490;11.116;2023-06-26T02:38:45;17.87;;;14.37;;
21741;SDS011;11033;47.490;11.116;2023-06-26T02:41:10;15.43;;;13.80;;
21741;SDS011;11033;47.490;11.116;2023-06-26T02:43:35;15.47;;;13.87;;
21741;SDS011;11033;47.490;11.116;2023-06-26T02:46:01;16.65;;;14.80;;
21741;SDS011;11033;47.490;11.116;2023-06-26T02:48:26;15.47;;;14.00;;
21741;SDS011;11033;47.490;11.116;2023-06-26T02:50:51;14.37;;;12.97;;
21741;SDS011;11033;47.490;11.116;2023-06-26T02:53:16;16.40;;;14.73;;
21741;SDS011;11033;47.490;11.116;2023-06-26T02:55:41;16.42;;;14.82;;
21741;SDS011;11033;47.490;11.116;2023-06-26T02:58:06;15.87;;;13.17;;
21741;SDS011;11033;47.490;11.116;2023-06-26T03:00:32;16.00;;;14.40;;
21741;SDS011;11033;47.490;11.116;2023-06-26T03:02:57;17.47;;;14.70;;
21741;SDS011;11033;47.490;11.116;2023-06-26T03:05:22;18.33;;;14.87;;
21741;SDS011;11033;47.490;11.116;2023-06-26T03:07:48;16.40;;;13.85;;
21741;SDS011;11033;47.490;11.116;2023-06-26T03:10:14;15.40;;;13.90;;
21741;SDS011;11033;47.490;11.116;2023-06-26T03:12:39;15.17;;;13.57;;
21741;SDS011;11033;47.490;11.116;2023-06-26T03:15:04;17.10;;;15.30;;
21741;SDS011;11033;47.490;11.116;2023-06-26T03:17:29;15.98;;;14.38;;
21741;SDS011;11033;47.490;11.116;2023-06-26T03:19:55;16.20;;;13.73;;
21741;SDS011;11033;47.490;11.116;2023-06-26T03:22:20;15.77;;;14.27;;
21741;SDS011;11033;47.490;11.116;2023-06-26T03:24:45;15.27;;;13.77;;
21741;SDS011;11033;47.490;11.116;2023-06-26T03:27:10;15.75;;;14.20;;
21741;SDS011;11033;47.490;11.116;2023-06-26T03:29:35;15.63;;;14.10;;
21741;SDS011;11033;47.490;11.116;2023-06-26T03:32:01;15.90;;;14.37;;
21741;SDS011;11033;47.490;11.116;2023-06-26T03:34:26;15.23;;;13.57;;
21741;SDS011;11033;47.490;11.116;2023-06-26T03:36:51;16.33;;;14.02;;
21741;SDS011;11033;47.490;11.116;2023-06-26T03:39:16;15.70;;;13.97;;
21741;SDS011;11033;47.490;11.116;2023-06-26T03:41:41;15.43;;;13.93;;
21741;SDS011;11033;47.490;11.116;2023-06-26T03:44:07;14.67;;;13.23;;
21741;SDS011;11033;47.490;11.116;2023-06-26T03:46:32;16.67;;;14.68;;
21741;SDS011;11033;47.490;11.116;2023-06-26T03:48:57;17.23;;;14.23;;
21741;SDS011;11033;47.490;11.116;2023-06-26T03:51:22;16.27;;;14.50;;
21741;SDS011;11033;47.490;11.116;2023-06-26T03:53:47;15.37;;;13.83;;
21741;SDS011;11033;47.490;11.116;2023-06-26T03:56:12;17.33;;;14.30;;
21741;SDS011;11033;47.490;11.116;2023-06-26T03:58:39;20.40;;;14.20;;
21741;SDS011;11033;47.490;11.116;2023-06-26T04:01:04;15.97;;;14.37;;
21741;SDS011;11033;47.490;11.116;2023-06-26T04:03:29;14.97;;;13.43;;
21741;SDS011;11033;47.490;11.116;2023-06-26T04:05:55;15.05;;;13.55;;
21741;SDS011;11033;47.490;11.116;2023-06-26T04:08:20;14.98;;;13.23;;
21741;SDS011;11033;47.490;11.116;2023-06-26T04:10:46;14.27;;;12.88;;
21741;SDS011;11033;47.490;11.116;2023-06-26T04:13:12;15.85;;;13.63;;
21741;SDS011;11033;47.490;11.116;2023-06-26T04:15:39;15.85;;;14.25;;
21741;SDS011;11033;47.490;11.116;2023-06-26T04:18:04;16.42;;;13.90;;
21741;SDS011;11033;47.490;11.116;2023-06-26T04:20:29;15.90;;;14.30;;
21741;SDS011;11033;47.490;11.116;2023-06-26T04:22:54;14.77;;;13.25;;
21741;SDS011;11033;47.490;11.116;2023-06-26T04:25:19;17.87;;;13.83;;
21741;SDS011;11033;47.490;11.116;2023-06-26T04:27:44;16.10;;;14.40;;
21741;SDS011;11033;47.490;11.116;2023-06-26T04:30:10;15.73;;;14.13;;
21741;SDS011;11033;47.490;11.116;2023-06-26T04:32:35;15.57;;;14.07;;
21741;SDS011;11033;47.490;11.116;2023-06-26T04:35:00;15.10;;;13.60;;
21741;SDS011;11033;47.490;11.116;2023-06-26T04:37:25;16.83;;;15.15;;
21741;SDS011;11033;47.490;11.116;2023-06-26T04:39:51;16.17;;;14.47;;
21741;SDS011;11033;47.490;11.116;2023-06-26T04:42:16;15.63;;;13.97;;
21741;SDS011;11033;47.490;11.116;2023-06-26T04:44:41;15.70;;;14.05;;
21741;SDS011;11033;47.490;11.116;2023-06-26T04:47:07;16.00;;;14.30;;
21741;SDS011;11033;47.490;11.116;2023-06-26T04:49:32;16.48;;;14.20;;
21741;SDS011;11033;47.490;11.116;2023-06-26T04:51:58;15.03;;;13.43;;
21741;SDS011;11033;47.490;11.116;2023-06-26T04:54:25;15.38;;;13.77;;
21741;SDS011;11033;47.490;11.116;2023-06-26T04:56:50;15.55;;;13.88;;
21741;SDS011;11033;47.490;11.116;2023-06-26T04:59:15;16.80;;;15.05;;
21741;SDS011;11033;47.490;11.116;2023-06-26T05:01:41;15.90;;;14.40;;
21741;SDS011;11033;47.490;11.116;2023-06-26T05:04:07;15.30;;;13.87;;
21741;SDS011;11033;47.490;11.116;2023-06-26T05:06:32;15.25;;;13.65;;
21741;SDS011;11033;47.490;11.116;2023-06-26T05:08:57;15.85;;;14.23;;
21741;SDS011;11033;47.490;11.116;2023-06-26T05:11:24;15.73;;;14.23;;
21741;SDS011;11033;47.490;11.116;2023-06-26T05:13:49;16.50;;;14.93;;
21741;SDS011;11033;47.490;11.116;2023-06-26T05:16:14;15.90;;;14.10;;
21741;SDS011;11033;47.490;11.116;2023-06-26T05:18:39;19.70;;;14.57;;
21741;SDS011;11033;47.490;11.116;2023-06-26T05:21:05;15.45;;;13.93;;
21741;SDS011;11033;47.490;11.116;2023-06-26T05:23:31;15.02;;;13.63;;
21741;SDS011;11033;47.490;11.116;2023-06-26T05:25:57;14.63;;;13.23;;
21741;SDS011;11033;47.490;11.116;2023-06-26T05:28:22;16.92;;;15.30;;
21741;SDS011;11033;47.490;11.116;2023-06-26T05:30:49;14.77;;;13.40;;
21741;SDS011;11033;47.490;11.116;2023-06-26T05:33:15;15.45;;;13.68;;
21741;SDS011;11033;47.490;11.116;2023-06-26T05:35:42;14.38;;;13.02;;
21741;SDS011;11033;47.490;11.116;2023-06-26T05:38:07;14.68;;;13.27;;
21741;SDS011;11033;47.490;11.116;2023-06-26T05:40:33;14.88;;;13.48;;
21741;SDS011;11033;47.490;11.116;2023-06-26T05:42:59;15.52;;;14.13;;
21741;SDS011;11033;47.490;11.116;2023-06-26T05:45:24;14.73;;;13.23;;
21741;SDS011;11033;47.490;11.116;2023-06-26T05:47:50;17.77;;;13.97;;
21741;SDS011;11033;47.490;11.116;2023-06-26T05:50:16;16.47;;;14.77;;
21741;SDS011;11033;47.490;11.116;2023-06-26T05:52:42;16.00;;;13.77;;
21741;SDS011;11033;47.490;11.116;2023-06-26T05:55:09;14.75;;;13.15;;
21741;SDS011;11033;47.490;11.116;2023-06-26T05:57:34;14.70;;;13.30;;
21741;SDS011;11033;47.490;11.116;2023-06-26T06:00:00;15.50;;;14.00;;
21741;SDS011;11033;47.490;11.116;2023-06-26T06:02:25;16.73;;;15.03;;
21741;SDS011;11033;47.490;11.116;2023-06-26T06:04:50;20.50;;;14.27;;
21741;SDS011;11033;47.490;11.116;2023-06-26T06:07:15;14.20;;;12.90;;
21741;SDS011;11033;47.490;11.116;2023-06-26T06:09:40;15.50;;;14.10;;
21741;SDS011;11033;47.490;11.116;2023-06-26T06:12:06;15.15;;;13.65;;
21741;SDS011;11033;47.490;11.116;2023-06-26T06:14:34;20.40;;;15.10;;
21741;SDS011;11033;47.490;11.116;2023-06-26T06:16:59;22.27;;;16.58;;
21741;SDS011;11033;47.490;11.116;2023-06-26T06:19:24;26.07;;;21.70;;
21741;SDS011;11033;47.490;11.116;2023-06-26T06:21:50;19.00;;;16.97;;
21741;SDS011;11033;47.490;11.116;2023-06-26T06:24:15;16.13;;;14.57;;
21741;SDS011;11033;47.490;11.116;2023-06-26T06:26:40;14.63;;;13.23;;
21741;SDS011;11033;47.490;11.116;2023-06-26T06:29:05;15.88;;;14.27;;
21741;SDS011;11033;47.490;11.116;2023-06-26T06:31:31;15.77;;;14.20;;
21741;SDS011;11033;47.490;11.116;2023-06-26T06:33:56;15.55;;;13.85;;
21741;SDS011;11033;47.490;11.116;2023-06-26T06:36:21;16.07;;;14.57;;
21741;SDS011;11033;47.490;11.116;2023-06-26T06:38:46;16.57;;;13.80;;
21741;SDS011;11033;47.490;11.116;2023-06-26T06:41:11;14.63;;;13.30;;
21741;SDS011;11033;47.490;11.116;2023-06-26T06:43:37;15.35;;;13.85;;
21741;SDS011;11033;47.490;11.116;2023-06-26T06:46:03;16.25;;;14.77;;
21741;SDS011;11033;47.490;11.116;2023-06-26T06:48:28;16.50;;;15.00;;
21741;SDS011;11033;47.490;11.116;2023-06-26T06:50:53;16.23;;;14.63;;
21741;SDS011;11033;47.490;11.116;2023-06-26T06:53:18;15.83;;;14.23;;
21741;SDS011;11033;47.490;11.116;2023-06-26T06:55:46;16.38;;;14.88;;
21741;SDS011;11033;47.490;11.116;2023-06-26T06:58:12;22.10;;;19.73;;
21741;SDS011;11033;47.490;11.116;2023-06-26T07:00:37;18.73;;;16.77;;
21741;SDS011;11033;47.490;11.116;2023-06-26T07:03:02;16.17;;;14.57;;
21741;SDS011;11033;47.490;11.116;2023-06-26T07:05:27;16.30;;;14.77;;
21741;SDS011;11033;47.490;11.116;2023-06-26T07:07:53;16.70;;;15.10;;
21741;SDS011;11033;47.490;11.116;2023-06-26T07:10:18;47.63;;;19.40;;
21741;SDS011;11033;47.490;11.116;2023-06-26T07:12:43;25.40;;;15.33;;
21741;SDS011;11033;47.490;11.116;2023-06-26T07:15:09;44.63;;;26.00;;
21741;SDS011;11033;47.490;11.116;2023-06-26T07:17:34;17.25;;;15.60;;
21741;SDS011;11033;47.490;11.116;2023-06-26T07:20:02;18.93;;;15.97;;
21741;SDS011;11033;47.490;11.116;2023-06-26T07:22:31;16.38;;;14.88;;
21741;SDS011;11033;47.490;11.116;2023-06-26T07:24:57;18.30;;;14.60;;
21741;SDS011;11033;47.490;11.116;2023-06-26T07:27:22;15.60;;;14.27;;
21741;SDS011;11033;47.490;11.116;2023-06-26T07:29:47;20.33;;;14.70;;
21741;SDS011;11033;47.490;11.116;2023-06-26T07:32:12;15.73;;;14.13;;
21741;SDS011;11033;47.490;11.116;2023-06-26T07:34:37;25.63;;;16.77;;
21741;SDS011;11033;47.490;11.116;2023-06-26T07:37:03;20.23;;;14.30;;
21741;SDS011;11033;47.490;11.116;2023-06-26T07:39:28;30.13;;;16.00;;
21741;SDS011;11033;47.490;11.116;2023-06-26T07:41:54;24.92;;;15.80;;
21741;SDS011;11033;47.490;11.116;2023-06-26T07:44:19;15.50;;;14.10;;
21741;SDS011;11033;47.490;11.116;2023-06-26T07:46:44;20.73;;;15.10;;
21741;SDS011;11033;47.490;11.116;2023-06-26T07:49:10;16.30;;;14.73;;
21741;SDS011;11033;47.490;11.116;2023-06-26T07:51:35;25.20;;;18.98;;
21741;SDS011;11033;47.490;11.116;2023-06-26T07:54:00;15.33;;;13.87;;
21741;SDS011;11033;47.490;11.116;2023-06-26T07:56:25;19.23;;;14.85;;
21741;SDS011;11033;47.490;11.116;2023-06-26T07:58:50;19.60;;;13.47;;
21741;SDS011;11033;47.490;11.116;2023-06-26T08:01:16;13.60;;;12.07;;
21741;SDS011;11033;47.490;11.116;2023-06-26T08:03:41;13.80;;;12.80;;
21741;SDS011;11033;47.490;11.116;2023-06-26T08:06:07;11.98;;;10.98;;
21741;SDS011;11033;47.490;11.116;2023-06-26T08:08:32;12.97;;;11.87;;
21741;SDS011;11033;47.490;11.116;2023-06-26T08:10:57;12.30;;;11.30;;
21741;SDS011;11033;47.490;11.116;2023-06-26T08:13:22;13.10;;;12.00;;
21741;SDS011;11033;47.490;11.116;2023-06-26T08:15:48;12.93;;;11.73;;
21741;SDS011;11033;47.490;11.116;2023-06-26T08:18:13;12.27;;;10.80;;
21741;SDS011;11033;47.490;11.116;2023-06-26T08:20:38;12.20;;;11.27;;
21741;SDS011;11033;47.490;11.116;2023-06-26T08:23:03;11.77;;;10.67;;
21741;SDS011;11033;47.490;11.116;2023-06-26T08:25:29;12.13;;;10.90;;
21741;SDS011;11033;47.490;11.116;2023-06-26T08:27:54;12.30;;;11.23;;
21741;SDS011;11033;47.490;11.116;2023-06-26T08:30:20;11.90;;;10.90;;
21741;SDS011;11033;47.490;11.116;2023-06-26T08:32:45;12.10;;;11.20;;
21741;SDS011;11033;47.490;11.116;2023-06-26T08:35:10;12.87;;;11.93;;
21741;SDS011;11033;47.490;11.116;2023-06-26T08:37:35;11.23;;;10.33;;
21741;SDS011;11033;47.490;11.116;2023-06-26T08:40:01;12.30;;;11.30;;
21741;SDS011;11033;47.490;11.116;2023-06-26T08:42:26;12.20;;;11.20;;
21741;SDS011;11033;47.490;11.116;2023-06-26T08:44:51;12.20;;;11.00;;
21741;SDS011;11033;47.490;11.116;2023-06-26T08:47:17;16.50;;;11.98;;
21741;SDS011;11033;47.490;11.116;2023-06-26T08:49:47;12.10;;;11.02;;
21741;SDS011;11033;47.490;11.116;2023-06-26T08:52:24;11.82;;;10.73;;
21741;SDS011;11033;47.490;11.116;2023-06-26T08:54:54;12.10;;;11.20;;
21741;SDS011;11033;47.490;11.116;2023-06-26T08:57:21;13.65;;;12.43;;
21741;SDS011;11033;47.490;11.116;2023-06-26T08:59:47;13.23;;;12.15;;
21741;SDS011;11033;47.490;11.116;2023-06-26T09:02:12;11.48;;;10.57;;
21741;SDS011;11033;47.490;11.116;2023-06-26T09:04:38;12.43;;;10.87;;
21741;SDS011;11033;47.490;11.116;2023-06-26T09:07:06;12.02;;;11.13;;
21741;SDS011;11033;47.490;11.116;2023-06-26T09:09:31;11.65;;;10.75;;
21741;SDS011;11033;47.490;11.116;2023-06-26T09:11:56;11.60;;;10.80;;
21741;SDS011;11033;47.490;11.116;2023-06-26T09:14:22;11.47;;;10.70;;
21741;SDS011;11033;47.490;11.116;2023-06-26T09:16:47;11.70;;;10.90;;
21741;SDS011;11033;47.490;11.116;2023-06-26T09:19:12;12.90;;;11.90;;
21741;SDS011;11033;47.490;11.116;2023-06-26T09:21:38;12.05;;;11.20;;
21741;SDS011;11033;47.490;11.116;2023-06-26T09:24:04;11.82;;;10.85;;
21741;SDS011;11033;47.490;11.116;2023-06-26T09:26:30;11.55;;;10.75;;
21741;SDS011;11033;47.490;11.116;2023-06-26T09:28:56;10.90;;;10.07;;
21741;SDS011;11033;47.490;11.116;2023-06-26T09:31:23;10.95;;;10.25;;
21741;SDS011;11033;47.490;11.116;2023-06-26T09:33:48;11.43;;;10.63;;
21741;SDS011;11033;47.490;11.116;2023-06-26T09:36:20;11.82;;;10.60;;
21741;SDS011;11033;47.490;11.116;2023-06-26T09:38:49;11.40;;;10.60;;
21741;SDS011;11033;47.490;11.116;2023-06-26T09:41:18;10.67;;;9.97;;
21741;SDS011;11033;47.490;11.116;2023-06-26T09:43:49;11.43;;;10.63;;
21741;SDS011;11033;47.490;11.116;2023-06-26T09:46:16;11.38;;;10.57;;
21741;SDS011;11033;47.490;11.116;2023-06-26T09:48:41;10.85;;;10.15;;
21741;SDS011;11033;47.490;11.116;2023-06-26T09:51:06;11.93;;;11.13;;
21741;SDS011;11033;47.490;11.116;2023-06-26T09:53:31;11.23;;;10.52;;
21741;SDS011;11033;47.490;11.116;2023-06-26T09:55:59;11.93;;;11.02;;
21741;SDS011;11033;47.490;11.116;2023-06-26T09:58:29;11.75;;;10.95;;
21741;SDS011;11033;47.490;11.116;2023-06-26T10:00:55;11.50;;;10.55;;
21741;SDS011;11033;47.490;11.116;2023-06-26T10:03:20;10.67;;;9.97;;
21741;SDS011;11033;47.490;11.116;2023-06-26T10:05:45;11.23;;;10.43;;
21741;SDS011;11033;47.490;11.116;2023-06-26T10:08:11;13.02;;;11.82;;
21741;SDS011;11033;47.490;11.116;2023-06-26T10:10:39;16.48;;;15.13;;
21741;SDS011;11033;47.490;11.116;2023-06-26T10:13:08;13.55;;;12.50;;
21741;SDS011;11033;47.490;11.116;2023-06-26T10:15:36;13.02;;;11.63;;
21741;SDS011;11033;47.490;11.116;2023-06-26T10:18:01;12.30;;;11.30;;
21741;SDS011;11033;47.490;11.116;2023-06-26T10:20:27;12.40;;;11.43;;
21741;SDS011;11033;47.490;11.116;2023-06-26T10:22:52;11.23;;;10.52;;
21741;SDS011;11033;47.490;11.116;2023-06-26T10:25:20;11.05;;;10.35;;
21741;SDS011;11033;47.490;11.116;2023-06-26T10:27:51;11.25;;;10.50;;
21741;SDS011;11033;47.490;11.116;2023-06-26T10:30:18;11.93;;;11.10;;
21741;SDS011;11033;47.490;11.116;2023-06-26T10:32:44;12.05;;;11.35;;
21741;SDS011;11033;47.490;11.116;2023-06-26T10:35:10;12.68;;;11.88;;
21741;SDS011;11033;47.490;11.116;2023-06-26T10:37:46;11.52;;;10.73;;
21741;SDS011;11033;47.490;11.116;2023-06-26T10:40:12;12.80;;;11.68;;
21741;SDS011;11033;47.490;11.116;2023-06-26T10:42:38;12.65;;;11.85;;
21741;SDS011;11033;47.490;11.116;2023-06-26T10:45:10;12.35;;;11.45;;
21741;SDS011;11033;47.490;11.116;2023-06-26T10:47:37;13.52;;;12.63;;
21741;SDS011;11033;47.490;11.116;2023-06-26T10:55:30;12.77;;;11.80;;
21741;SDS011;11033;47.490;11.116;2023-06-26T10:57:55;13.77;;;12.57;;
21741;SDS011;11033;47.490;11.116;2023-06-26T11:00:20;12.77;;;11.88;;
21741;SDS011;11033;47.490;11.116;2023-06-26T11:02:52;13.38;;;12.27;;
21741;SDS011;11033;47.490;11.116;2023-06-26T11:05:23;13.65;;;12.85;;
21741;SDS011;11033;47.490;11.116;2023-06-26T11:08:04;12.80;;;11.90;;
21741;SDS011;11033;47.490;11.116;2023-06-26T11:10:29;13.30;;;12.38;;
21741;SDS011;11033;47.490;11.116;2023-06-26T11:12:55;12.13;;;11.33;;
21741;SDS011;11033;47.490;11.116;2023-06-26T11:15:22;13.10;;;11.85;;
21741;SDS011;11033;47.490;11.116;2023-06-26T11:17:49;13.70;;;12.60;;
21741;SDS011;11033;47.490;11.116;2023-06-26T11:20:15;12.73;;;11.73;;
21741;SDS011;11033;47.490;11.116;2023-06-26T11:22:41;12.27;;;11.48;;
21741;SDS011;11033;47.490;11.116;2023-06-26T11:25:07;13.38;;;12.10;;
21741;SDS011;11033;47.490;11.116;2023-06-26T11:27:38;12.77;;;11.68;;
21741;SDS011;11033;47.490;11.116;2023-06-26T11:30:06;11.88;;;11.18;;
21741;SDS011;11033;47.490;11.116;2023-06-26T11:32:32;12.85;;;11.95;;
21741;SDS011;11033;47.490;11.116;2023-06-26T11:35:00;12.10;;;11.30;;
21741;SDS011;11033;47.490;11.116;2023-06-26T11:37:26;12.15;;;11.25;;
21741;SDS011;11033;47.490;11.116;2023-06-26T11:39:51;13.10;;;12.10;;
21741;SDS011;11033;47.490;11.116;2023-06-26T11:42:17;12.52;;;11.65;;
21741;SDS011;11033;47.490;11.116;2023-06-26T11:44:42;12.02;;;11.23;;
21741;SDS011;11033;47.490;11.116;2023-06-26T11:47:11;12.63;;;11.82;;
21741;SDS011;11033;47.490;11.116;2023-06-26T11:49:37;12.55;;;11.75;;
21741;SDS011;11033;47.490;11.116;2023-06-26T11:52:02;13.00;;;12.10;;
21741;SDS011;11033;47.490;11.116;2023-06-26T11:54:27;12.50;;;11.65;;
21741;SDS011;11033;47.490;11.116;2023-06-26T11:56:56;12.33;;;11.53;;
21741;SDS011;11033;47.490;11.116;2023-06-26T11:59:22;13.43;;;12.50;;
21741;SDS011;11033;47.490;11.116;2023-06-26T12:01:48;13.13;;;12.32;;
21741;SDS011;11033;47.490;11.116;2023-06-26T12:04:15;13.55;;;12.55;;
21741;SDS011;11033;47.490;11.116;2023-06-26T12:06:42;13.10;;;12.20;;
21741;SDS011;11033;47.490;11.116;2023-06-26T12:09:08;13.25;;;12.35;;
21741;SDS011;11033;47.490;11.116;2023-06-26T12:11:35;14.07;;;12.75;;
21741;SDS011;11033;47.490;11.116;2023-06-26T12:14:01;19.33;;;12.80;;
21741;SDS011;11033;47.490;11.116;2023-06-26T12:16:27;13.65;;;12.57;;
21741;SDS011;11033;47.490;11.116;2023-06-26T12:18:57;13.98;;;12.98;;
21741;SDS011;11033;47.490;11.116;2023-06-26T12:26:28;13.27;;;12.35;;
21741;SDS011;11033;47.490;11.116;2023-06-26T12:29:00;11.98;;;11.18;;
21741;SDS011;11033;47.490;11.116;2023-06-26T12:31:26;13.40;;;12.25;;
21741;SDS011;11033;47.490;11.116;2023-06-26T12:33:51;13.00;;;12.13;;
21741;SDS011;11033;47.490;11.116;2023-06-26T12:36:20;13.02;;;12.13;;
21741;SDS011;11033;47.490;11.116;2023-06-26T12:38:45;12.70;;;11.83;;
21741;SDS011;11033;47.490;11.116;2023-06-26T12:41:13;13.80;;;12.80;;
21741;SDS011;11033;47.490;11.116;2023-06-26T12:43:39;13.77;;;12.77;;
21741;SDS011;11033;47.490;11.116;2023-06-26T12:46:05;13.27;;;12.38;;
21741;SDS011;11033;47.490;11.116;2023-06-26T12:48:39;14.05;;;12.93;;
21741;SDS011;11033;47.490;11.116;2023-06-26T12:51:14;14.00;;;12.88;;
21741;SDS011;11033;47.490;11.116;2023-06-26T12:53:40;15.13;;;13.63;;
21741;SDS011;11033;47.490;11.116;2023-06-26T12:56:05;12.90;;;12.05;;
21741;SDS011;11033;47.490;11.116;2023-06-26T12:58:31;14.02;;;12.80;;
21741;SDS011;11033;47.490;11.116;2023-06-26T13:00:56;12.93;;;12.10;;
21741;SDS011;11033;47.490;11.116;2023-06-26T13:03:22;14.05;;;13.15;;
21741;SDS011;11033;47.490;11.116;2023-06-26T13:05:47;15.80;;;14.63;;
21741;SDS011;11033;47.490;11.116;2023-06-26T13:08:12;14.53;;;13.63;;
21741;SDS011;11033;47.490;11.116;2023-06-26T13:10:38;17.33;;;15.73;;
21741;SDS011;11033;47.490;11.116;2023-06-26T13:13:04;13.30;;;12.40;;
21741;SDS011;11033;47.490;11.116;2023-06-26T13:15:29;14.33;;;13.17;;
21741;SDS011;11033;47.490;11.116;2023-06-26T13:17:55;14.70;;;13.50;;
21741;SDS011;11033;47.490;11.116;2023-06-26T13:20:20;15.13;;;13.87;;
21741;SDS011;11033;47.490;11.116;2023-06-26T13:22:45;14.30;;;13.20;;
21741;SDS011;11033;47.490;11.116;2023-06-26T13:25:11;17.38;;;14.98;;
21741;SDS011;11033;47.490;11.116;2023-06-26T13:27:36;14.93;;;13.47;;
21741;SDS011;11033;47.490;11.116;2023-06-26T13:30:01;14.80;;;13.80;;
21741;SDS011;11033;47.490;11.116;2023-06-26T13:32:27;14.70;;;13.70;;
21741;SDS011;11033;47.490;11.116;2023-06-26T13:34:52;13.85;;;12.75;;
21741;SDS011;11033;47.490;11.116;2023-06-26T13:37:19;13.70;;;12.63;;
21741;SDS011;11033;47.490;11.116;2023-06-26T13:39:44;14.50;;;13.43;;
21741;SDS011;11033;47.490;11.116;2023-06-26T13:42:14;14.90;;;13.55;;
21741;SDS011;11033;47.490;11.116;2023-06-26T13:44:39;13.53;;;12.53;;
21741;SDS011;11033;47.490;11.116;2023-06-26T13:47:04;14.00;;;12.88;;
21741;SDS011;11033;47.490;11.116;2023-06-26T13:49:30;15.00;;;13.80;;
21741;SDS011;11033;47.490;11.116;2023-06-26T13:51:55;13.90;;;12.80;;
21741;SDS011;11033;47.490;11.116;2023-06-26T13:54:20;14.40;;;13.40;;
21741;SDS011;11033;47.490;11.116;2023-06-26T13:56:45;14.35;;;13.40;;
21741;SDS011;11033;47.490;11.116;2023-06-26T13:59:10;14.67;;;13.47;;
21741;SDS011;11033;47.490;11.116;2023-06-26T14:01:36;15.15;;;13.95;;
21741;SDS011;11033;47.490;11.116;2023-06-26T14:04:03;14.10;;;12.85;;
21741;SDS011;11033;47.490;11.116;2023-06-26T14:06:28;13.83;;;12.83;;
21741;SDS011;11033;47.490;11.116;2023-06-26T14:08:55;15.02;;;13.85;;
21741;SDS011;11033;47.490;11.116;2023-06-26T14:11:20;14.53;;;13.43;;
21741;SDS011;11033;47.490;11.116;2023-06-26T14:13:46;15.20;;;13.88;;
21741;SDS011;11033;47.490;11.116;2023-06-26T14:16:11;13.87;;;12.97;;